Spirit Falls, Wisconsin
Current Conditions -  °F | °C
As of 8:35 PM on Saturday 20 Dec 2014 (Local Time) from KTKV Reporting Station
Haze Haze  
Wind Chill: 27°   Ceiling: 900
Heat Index: 27°   Visibility: 5mi
Dew Point: 25°   Wind: 0mph
Humidity: 91%   Direction: NA
Pressure: 30.15"   Gusts: NA
Location:  45.6083°N, 89.9711°W
Report Text: KTKV 210235Z AUTO 00000KT 5SM BR OVC009 M03/M04 A3015 RMK AO2 T10271040
Loading
Personal Weather Stations






























Interactive Weather Map New forecast layout! Learn more

10-Day Weather Forecast

Advertisements
Track Severe Weather on mobile